Time;durP1;ratioP1;P1;durP2;ratioP2;P2;SDS_P1;SDS_P2;PMS_P1;PMS_P2;Temp;Humidity;BMP_temperature;BMP_pressure;BME280_temperature;BME280_humidity;BME280_pressure;Samples;Min_cycle;Max_cycle;Signal;HPM_P1;HPM_P2
2023/01/05 00:01:14;;;;;;;0.05;0.05;;;10.10;99.90;;;;;;5090403;28;20047;-71
2023/01/05 00:03:40;;;;;;;0.13;0.13;;;10.10;99.90;;;;;;5059539;28;20430;-72
2023/01/05 00:06:11;;;;;;;0.65;0.57;;;10.00;99.90;;;;;;5079206;28;20542;-71
2023/01/05 00:08:37;;;;;;;0.10;0.10;;;10.00;99.90;;;;;;5072441;28;20503;-72
2023/01/05 00:22:37;;;;;;;4.30;2.45;;;10.10;99.90;;;;;;5089596;28;20395;-72
2023/01/05 00:25:08;;;;;;;0.60;0.60;;;10.10;99.90;;;;;;5095125;28;20044;-72
2023/01/05 00:27:34;;;;;;;0.10;0.10;;;10.00;99.90;;;;;;5086505;28;20056;-72
2023/01/05 00:30:01;;;;;;;0.10;0.10;;;10.10;99.90;;;;;;5076060;28;20036;-71
2023/01/05 00:32:27;;;;;;;0.10;0.10;;;10.10;99.90;;;;;;5071957;28;20532;-71
2023/01/05 00:34:54;;;;;;;5.90;3.13;;;10.00;99.90;;;;;;5072369;28;20051;-72
2023/01/05 00:37:26;;;;;;;0.32;0.32;;;10.10;99.90;;;;;;5051476;28;20061;-71
2023/01/05 00:39:51;;;;;;;0.00;0.00;;;10.10;99.90;;;;;;5061959;28;20182;-71
2023/01/05 00:42:17;;;;;;;1.17;1.02;;;10.10;99.90;;;;;;5075009;28;20131;-71
2023/01/05 00:44:43;;;;;;;0.10;0.10;;;10.20;99.90;;;;;;5051177;28;20441;-71
2023/01/05 00:47:09;;;;;;;0.10;0.10;;;10.20;99.90;;;;;;5087522;28;20052;-71
2023/01/05 00:49:34;;;;;;;0.10;0.10;;;10.20;99.90;;;;;;5088274;28;20051;-71
2023/01/05 00:52:00;;;;;;;0.75;0.75;;;10.30;99.90;;;;;;5069481;28;20052;-71
2023/01/05 00:54:26;;;;;;;0.00;0.00;;;10.20;99.90;;;;;;5099039;28;20122;-72
2023/01/05 00:56:52;;;;;;;0.10;0.10;;;10.20;99.90;;;;;;5094475;28;20121;-71
2023/01/05 00:59:17;;;;;;;0.40;0.40;;;10.20;99.90;;;;;;5063850;28;20529;-72
2023/01/05 01:01:48;;;;;;;2.38;2.17;;;10.20;99.90;;;;;;5069370;28;20094;-71
2023/01/05 01:04:14;;;;;;;0.00;0.00;;;10.20;99.90;;;;;;5055368;28;20053;-72
2023/01/05 01:06:40;;;;;;;7.97;2.00;;;10.30;99.90;;;;;;5062924;28;20391;-72
2023/01/05 01:09:06;;;;;;;0.10;0.10;;;10.30;99.90;;;;;;5069730;28;20528;-71
2023/01/05 01:11:32;;;;;;;0.10;0.10;;;10.30;99.90;;;;;;5068533;28;20068;-72
2023/01/05 01:13:58;;;;;;;0.25;0.25;;;10.30;99.90;;;;;;5084663;28;20043;-71
2023/01/05 01:16:24;;;;;;;1.02;0.98;;;10.40;99.90;;;;;;5089378;28;20395;-72
2023/01/05 01:18:50;;;;;;;0.38;0.38;;;10.30;99.90;;;;;;5088822;28;20095;-71
2023/01/05 01:21:15;;;;;;;2.50;1.27;;;10.40;99.90;;;;;;5082672;28;20500;-72
2023/01/05 01:23:42;;;;;;;0.40;0.30;;;10.30;99.90;;;;;;5056600;28;20127;-71
2023/01/05 01:26:10;;;;;;;0.43;0.43;;;10.40;99.90;;;;;;5097550;28;20110;-72
2023/01/05 01:28:37;;;;;;;0.70;0.65;;;10.40;99.90;;;;;;5078179;28;20276;-72
2023/01/05 01:31:03;;;;;;;1.42;1.35;;;10.40;99.90;;;;;;5068794;28;20055;-72
2023/01/05 01:33:29;;;;;;;2.45;1.42;;;10.40;99.90;;;;;;5068211;28;20036;-72
2023/01/05 01:35:56;;;;;;;0.10;0.10;;;10.40;99.90;;;;;;5068262;28;20048;-72
2023/01/05 01:38:22;;;;;;;0.10;0.10;;;10.40;99.90;;;;;;5087073;28;20040;-71
2023/01/05 01:40:49;;;;;;;6.13;2.08;;;10.40;99.90;;;;;;5080365;28;20496;-72
2023/01/05 01:43:17;;;;;;;0.30;0.30;;;10.40;99.90;;;;;;5050318;28;20758;-72
2023/01/05 01:45:44;;;;;;;0.10;0.10;;;10.30;99.90;;;;;;5069921;28;20526;-72
2023/01/05 01:48:17;;;;;;;4.38;1.00;;;10.30;99.90;;;;;;5072568;28;20045;-71
2023/01/05 01:50:52;;;;;;;0.20;0.20;;;10.20;99.90;;;;;;5068582;28;20046;-71
2023/01/05 01:53:49;;;;;;;0.38;0.38;;;10.20;99.90;;;;;;5077933;28;20050;-70
2023/01/05 01:56:19;;;;;;;0.43;0.43;;;10.30;99.90;;;;;;5074950;28;20067;-72
2023/01/05 01:58:45;;;;;;;0.82;0.82;;;10.30;99.90;;;;;;5051330;28;20131;-72
2023/01/05 02:01:11;;;;;;;26.88;1.00;;;10.30;99.90;;;;;;5088165;28;20123;-72
2023/01/05 02:03:38;;;;;;;0.57;0.55;;;10.30;99.90;;;;;;5057526;28;20051;-72
2023/01/05 02:06:04;;;;;;;0.20;0.20;;;10.20;99.90;;;;;;5076652;28;20086;-71
2023/01/05 02:08:32;;;;;;;0.10;0.10;;;10.20;99.90;;;;;;5068502;28;20075;-72
2023/01/05 02:11:10;;;;;;;11.43;3.05;;;10.20;99.90;;;;;;5087539;28;20086;-72
2023/01/05 02:13:54;;;;;;;0.30;0.30;;;10.20;99.90;;;;;;5054937;28;20044;-72
2023/01/05 02:16:32;;;;;;;0.35;0.35;;;10.20;99.90;;;;;;5068560;28;20076;-73
2023/01/05 02:19:45;;;;;;;0.57;0.57;;;10.20;99.90;;;;;;5067501;28;20076;-73
2023/01/05 02:22:49;;;;;;;2.83;2.25;;;10.20;99.90;;;;;;4969683;28;20088;-72
2023/01/05 02:25:20;;;;;;;1.55;1.45;;;10.20;99.90;;;;;;5004698;28;20053;-72
2023/01/05 02:28:21;;;;;;;0.52;0.52;;;10.20;99.90;;;;;;5056013;28;20487;-73
2023/01/05 02:30:53;;;;;;;0.20;0.20;;;10.20;99.90;;;;;;5011935;28;20056;-72
2023/01/05 02:33:53;;;;;;;0.10;0.10;;;10.20;99.90;;;;;;5070734;28;20044;-72
2023/01/05 02:36:42;;;;;;;0.30;0.30;;;10.20;99.90;;;;;;5090901;28;20535;-72
2023/01/05 02:39:15;;;;;;;0.45;0.45;;;10.20;99.90;;;;;;5066987;28;20051;-72
2023/01/05 02:41:47;;;;;;;0.90;0.52;;;10.10;99.90;;;;;;5072293;28;20126;-73
2023/01/05 02:44:18;;;;;;;0.30;0.30;;;10.20;99.90;;;;;;5071382;28;20459;-72
2023/01/05 02:46:44;;;;;;;5.95;2.28;;;10.20;99.90;;;;;;5085146;28;20060;-72
2023/01/05 02:49:14;;;;;;;5.18;0.75;;;10.10;99.90;;;;;;5091527;28;20079;-72
2023/01/05 02:51:45;;;;;;;0.10;0.10;;;10.10;99.90;;;;;;5071725;28;20463;-72
2023/01/05 02:54:18;;;;;;;0.10;0.10;;;10.10;99.90;;;;;;5084897;28;20081;-72
2023/01/05 02:56:59;;;;;;;9.15;3.97;;;10.10;99.90;;;;;;5088550;28;20040;-72
2023/01/05 02:59:30;;;;;;;1.27;0.57;;;10.10;99.90;;;;;;5084880;28;20054;-72
2023/01/05 03:02:02;;;;;;;0.75;0.75;;;10.10;99.90;;;;;;5087635;28;20518;-72
2023/01/05 03:04:38;;;;;;;0.10;0.10;;;10.10;99.90;;;;;;5090284;28;20043;-72
2023/01/05 03:07:15;;;;;;;0.10;0.10;;;10.10;99.90;;;;;;5055600;28;20053;-72
2023/01/05 03:09:43;;;;;;;0.00;0.00;;;10.10;99.90;;;;;;5084404;28;20510;-72
2023/01/05 03:15:19;;;;;;;0.10;0.10;;;10.10;99.90;;;;;;5082633;28;20048;-72
2023/01/05 03:17:55;;;;;;;0.50;0.50;;;10.10;99.90;;;;;;5090609;28;20044;-72
2023/01/05 03:20:23;;;;;;;18.52;1.73;;;10.10;99.90;;;;;;5068389;28;20492;-72
2023/01/05 03:37:24;;;;;;;3.63;2.92;;;10.20;99.90;;;;;;5091003;28;20500;-72
2023/01/05 03:39:50;;;;;;;0.10;0.10;;;10.20;99.90;;;;;;5087054;28;20047;-72
2023/01/05 03:42:16;;;;;;;0.10;0.10;;;10.20;99.90;;;;;;5058917;28;20028;-72
2023/01/05 03:44:47;;;;;;;0.10;0.10;;;10.20;99.90;;;;;;5083103;28;20052;-71
2023/01/05 03:47:13;;;;;;;0.10;0.10;;;10.10;99.90;;;;;;5067993;28;20545;-72
2023/01/05 03:49:39;;;;;;;0.10;0.10;;;10.20;99.90;;;;;;5086734;28;20068;-72
2023/01/05 03:52:05;;;;;;;0.20;0.20;;;10.20;99.90;;;;;;5079442;28;20068;-71
2023/01/05 03:54:30;;;;;;;0.10;0.10;;;10.10;99.90;;;;;;5087122;28;20075;-71
2023/01/05 03:56:56;;;;;;;1.45;0.95;;;10.10;99.90;;;;;;5086167;28;20098;-72
2023/01/05 03:59:22;;;;;;;0.85;0.70;;;10.10;99.90;;;;;;5078807;28;20079;-71
2023/01/05 04:01:47;;;;;;;0.10;0.10;;;10.10;99.90;;;;;;5094062;28;20457;-72
2023/01/05 04:04:13;;;;;;;0.10;0.10;;;10.10;99.90;;;;;;5072415;28;20044;-71
2023/01/05 04:06:39;;;;;;;1.10;1.10;;;10.10;99.90;;;;;;5083006;28;20079;-72
2023/01/05 04:09:05;;;;;;;1.85;1.75;;;10.10;99.90;;;;;;5089567;28;20118;-72
2023/01/05 04:11:30;;;;;;;0.10;0.10;;;10.10;99.90;;;;;;5082399;28;20384;-72
2023/01/05 04:13:56;;;;;;;0.00;0.00;;;10.00;99.90;;;;;;5076122;28;20043;-72
2023/01/05 04:16:22;;;;;;;0.10;0.10;;;10.00;99.90;;;;;;5109739;28;20043;-72
2023/01/05 04:18:48;;;;;;;1.20;0.77;;;10.00;99.90;;;;;;5111105;28;20046;-72
2023/01/05 04:21:14;;;;;;;0.00;0.00;;;10.00;99.90;;;;;;5074095;28;20052;-72
2023/01/05 04:23:39;;;;;;;1.17;1.08;;;10.00;99.90;;;;;;5069934;28;20047;-72
2023/01/05 04:26:06;;;;;;;0.65;0.65;;;10.00;99.90;;;;;;5069341;28;20037;-72
2023/01/05 04:28:32;;;;;;;0.57;0.57;;;10.10;99.90;;;;;;5081591;28;20051;-72
2023/01/05 04:30:57;;;;;;;0.10;0.10;;;10.00;99.90;;;;;;5090229;28;20044;-72
2023/01/05 04:33:24;;;;;;;1.35;1.17;;;10.00;99.90;;;;;;5086515;28;20097;-72
2023/01/05 04:35:50;;;;;;;0.57;0.57;;;10.10;99.90;;;;;;5068943;28;20044;-72
2023/01/05 04:38:16;;;;;;;1.38;1.27;;;10.10;99.90;;;;;;5052396;28;20400;-72
2023/01/05 04:40:50;;;;;;;0.20;0.20;;;10.10;99.90;;;;;;5083181;28;20073;-72
2023/01/05 04:43:17;;;;;;;0.00;0.00;;;10.10;99.90;;;;;;5080954;28;20108;-72
2023/01/05 04:45:45;;;;;;;6.65;2.13;;;10.10;99.90;;;;;;5102089;28;20055;-72
2023/01/05 04:48:11;;;;;;;0.10;0.10;;;10.10;99.90;;;;;;5110734;28;20107;-71
2023/01/05 04:50:37;;;;;;;0.82;0.82;;;10.10;99.90;;;;;;5085658;28;20119;-72
2023/01/05 04:53:03;;;;;;;0.03;0.03;;;10.10;99.90;;;;;;5074607;28;20227;-71
2023/01/05 04:55:28;;;;;;;0.10;0.10;;;10.10;99.90;;;;;;5064037;28;20048;-72
2023/01/05 04:57:54;;;;;;;1.13;0.38;;;10.10;99.90;;;;;;5086233;28;20034;-72
2023/01/05 05:00:20;;;;;;;0.68;0.68;;;10.10;99.90;;;;;;5087126;28;20487;-71
2023/01/05 05:02:46;;;;;;;2.05;0.75;;;10.10;99.90;;;;;;5063913;28;20097;-71
2023/01/05 05:05:12;;;;;;;0.85;0.85;;;10.10;99.90;;;;;;5085129;28;20419;-71
2023/01/05 05:07:37;;;;;;;0.47;0.47;;;10.10;99.90;;;;;;5085350;28;20465;-72
2023/01/05 05:10:03;;;;;;;0.20;0.20;;;10.10;99.90;;;;;;5089453;28;20044;-71
2023/01/05 05:12:29;;;;;;;0.30;0.30;;;10.10;99.90;;;;;;5054599;28;20066;-72
2023/01/05 05:14:55;;;;;;;0.10;0.10;;;10.10;99.90;;;;;;5061247;28;20044;-72
2023/01/05 05:17:20;;;;;;;1.15;1.13;;;10.10;99.90;;;;;;5052084;28;20044;-72
2023/01/05 05:19:46;;;;;;;0.20;0.20;;;10.10;99.90;;;;;;5083125;28;20527;-72
2023/01/05 05:22:12;;;;;;;0.10;0.10;;;10.10;99.90;;;;;;5078462;28;20041;-72
2023/01/05 05:24:37;;;;;;;0.60;0.57;;;10.20;99.90;;;;;;5074044;28;20028;-72
2023/01/05 05:27:03;;;;;;;0.52;0.52;;;10.10;99.90;;;;;;5076756;28;20040;-72
2023/01/05 05:29:29;;;;;;;0.00;0.00;;;10.10;99.90;;;;;;5050644;28;20074;-72
2023/01/05 05:31:54;;;;;;;0.55;0.55;;;10.20;99.90;;;;;;5056589;28;20047;-72
2023/01/05 05:34:20;;;;;;;0.05;0.05;;;10.10;99.90;;;;;;5080213;28;20063;-71
2023/01/05 05:36:46;;;;;;;1.55;1.45;;;10.10;99.90;;;;;;5089782;28;20130;-72
2023/01/05 05:39:12;;;;;;;0.20;0.20;;;10.20;99.90;;;;;;5081124;28;20040;-72
2023/01/05 05:41:38;;;;;;;0.20;0.13;;;10.10;99.90;;;;;;5068168;28;20105;-71
2023/01/05 05:44:04;;;;;;;0.20;0.20;;;10.10;99.90;;;;;;5085089;28;20040;-71
2023/01/05 05:46:30;;;;;;;0.10;0.10;;;10.10;99.90;;;;;;5086794;28;20062;-71
2023/01/05 05:48:57;;;;;;;0.10;0.10;;;10.20;99.90;;;;;;5085749;28;20048;-71
2023/01/05 05:51:24;;;;;;;0.20;0.20;;;10.10;99.90;;;;;;5069773;28;20040;-71
2023/01/05 05:53:50;;;;;;;0.10;0.10;;;10.10;99.90;;;;;;5082351;28;20429;-71
2023/01/05 05:56:16;;;;;;;0.17;0.17;;;10.10;99.90;;;;;;5067826;28;20111;-71
2023/01/05 05:58:41;;;;;;;0.50;0.50;;;10.20;99.90;;;;;;5067470;28;20538;-71
2023/01/05 06:01:07;;;;;;;0.10;0.10;;;10.10;99.90;;;;;;5067860;28;20194;-71
2023/01/05 06:03:33;;;;;;;0.08;0.08;;;10.10;99.90;;;;;;5079054;28;20487;-71
2023/01/05 06:06:00;;;;;;;0.20;0.20;;;10.10;99.90;;;;;;5100049;28;20047;-71
2023/01/05 06:08:28;;;;;;;0.00;0.00;;;10.00;99.90;;;;;;5076196;28;20048;-71
2023/01/05 06:10:54;;;;;;;21.80;1.00;;;10.10;99.90;;;;;;5051694;28;20403;-71
2023/01/05 06:13:20;;;;;;;2.45;2.17;;;10.00;99.90;;;;;;5049956;28;20056;-72
2023/01/05 06:15:46;;;;;;;0.10;0.10;;;10.00;99.90;;;;;;5069129;28;20139;-71
2023/01/05 06:18:12;;;;;;;0.43;0.43;;;10.00;99.90;;;;;;5067445;28;20182;-72
2023/01/05 06:20:38;;;;;;;1.63;1.17;;;10.00;99.90;;;;;;5067192;28;20036;-72
2023/01/05 06:23:04;;;;;;;0.73;0.73;;;10.00;99.90;;;;;;5068254;28;20050;-72
2023/01/05 06:25:30;;;;;;;0.10;0.10;;;10.00;99.90;;;;;;5070385;28;20036;-72
2023/01/05 06:27:56;;;;;;;0.88;0.85;;;10.00;99.90;;;;;;5072108;28;20036;-72
2023/01/05 06:30:22;;;;;;;0.10;0.10;;;10.00;99.90;;;;;;5078613;28;20043;-72
2023/01/05 06:32:47;;;;;;;1.40;1.40;;;10.00;99.90;;;;;;5086736;28;20063;-72
2023/01/05 06:35:13;;;;;;;2.88;1.10;;;10.10;99.90;;;;;;5094039;28;20178;-71
2023/01/05 06:37:39;;;;;;;0.32;0.32;;;10.10;99.90;;;;;;5068287;28;20046;-72
2023/01/05 06:40:05;;;;;;;2.10;1.85;;;10.00;99.90;;;;;;5079412;28;20032;-72
2023/01/05 06:42:32;;;;;;;0.10;0.10;;;10.00;99.90;;;;;;5082334;28;20044;-71
2023/01/05 06:44:57;;;;;;;0.30;0.30;;;10.10;99.90;;;;;;5079970;28;20048;-72
2023/01/05 06:47:23;;;;;;;3.30;1.30;;;10.00;99.90;;;;;;5068157;28;20102;-72
2023/01/05 06:49:49;;;;;;;0.40;0.40;;;10.00;99.90;;;;;;5067283;28;20072;-71
2023/01/05 06:52:14;;;;;;;1.02;1.02;;;10.00;99.90;;;;;;5078482;28;20044;-70
2023/01/05 06:54:40;;;;;;;0.05;0.05;;;10.00;99.90;;;;;;5072383;28;20036;-71
2023/01/05 06:57:06;;;;;;;0.38;0.38;;;10.00;99.90;;;;;;5066669;28;20037;-71
2023/01/05 06:59:33;;;;;;;0.17;0.17;;;9.90;99.90;;;;;;5067750;28;20048;-71
2023/01/05 07:01:58;;;;;;;0.17;0.17;;;9.90;99.90;;;;;;5083843;28;20048;-71
2023/01/05 07:04:24;;;;;;;0.20;0.20;;;9.90;99.90;;;;;;5102759;28;20954;-71
2023/01/05 07:06:50;;;;;;;0.40;0.40;;;9.90;99.90;;;;;;5082575;28;20128;-71
2023/01/05 07:09:15;;;;;;;0.10;0.10;;;9.80;99.90;;;;;;5073071;28;20036;-71
2023/01/05 07:11:41;;;;;;;0.47;0.47;;;9.80;99.90;;;;;;5086991;28;20074;-71
2023/01/05 07:14:06;;;;;;;0.10;0.10;;;9.80;99.90;;;;;;5079059;28;20463;-71
2023/01/05 07:16:32;;;;;;;0.10;0.10;;;9.80;99.90;;;;;;5070680;28;20046;-71
2023/01/05 07:18:58;;;;;;;0.00;0.00;;;9.80;99.90;;;;;;5068149;28;20093;-72
2023/01/05 07:21:23;;;;;;;0.30;0.30;;;9.80;99.90;;;;;;5050500;28;20039;-71
2023/01/05 07:23:49;;;;;;;1.88;1.00;;;9.80;99.90;;;;;;5070310;28;20048;-71
2023/01/05 07:26:15;;;;;;;0.32;0.32;;;9.80;99.90;;;;;;5071325;28;20540;-71
2023/01/05 07:28:40;;;;;;;0.10;0.10;;;9.80;99.90;;;;;;5069110;28;20047;-72
2023/01/05 07:31:06;;;;;;;0.10;0.10;;;9.80;99.90;;;;;;5078109;28;20399;-72
2023/01/05 07:33:32;;;;;;;0.00;0.00;;;9.80;99.90;;;;;;5088436;28;20113;-71
2023/01/05 07:36:02;;;;;;;0.00;0.00;;;9.90;99.90;;;;;;5080067;28;20037;-72
2023/01/05 07:38:28;;;;;;;0.15;0.15;;;9.90;99.90;;;;;;5072937;28;20089;-71
2023/01/05 07:41:00;;;;;;;0.55;0.55;;;9.90;99.90;;;;;;5071224;28;20040;-71
2023/01/05 07:43:26;;;;;;;0.10;0.10;;;9.90;99.90;;;;;;5064050;28;20476;-72
2023/01/05 07:45:59;;;;;;;0.30;0.30;;;9.90;99.90;;;;;;5086905;28;20052;-71
2023/01/05 07:48:25;;;;;;;0.13;0.13;;;9.90;99.90;;;;;;5073143;28;20480;-71
2023/01/05 07:50:51;;;;;;;0.80;0.75;;;9.90;99.90;;;;;;5070102;28;20051;-71
2023/01/05 07:53:16;;;;;;;0.95;0.95;;;9.90;99.90;;;;;;5056138;28;20469;-71
2023/01/05 07:55:42;;;;;;;0.10;0.10;;;9.90;99.90;;;;;;5093327;28;20047;-71
2023/01/05 07:58:08;;;;;;;0.15;0.15;;;9.90;99.90;;;;;;5090629;28;20075;-72
2023/01/05 08:00:33;;;;;;;1.38;1.27;;;9.90;99.90;;;;;;5090207;28;20482;-71
2023/01/05 08:02:59;;;;;;;1.25;1.10;;;9.90;99.90;;;;;;5062412;28;20044;-72
2023/01/05 08:05:29;;;;;;;0.20;0.20;;;9.90;99.90;;;;;;5075051;28;20120;-71
2023/01/05 08:07:55;;;;;;;1.40;0.98;;;9.90;99.90;;;;;;5077080;28;20125;-71
2023/01/05 08:10:29;;;;;;;0.10;0.10;;;9.90;99.90;;;;;;5073970;28;20144;-72
2023/01/05 08:15:45;;;;;;;1.25;1.15;;;10.00;99.90;;;;;;5070287;28;20052;-72
2023/01/05 08:18:11;;;;;;;3.63;2.83;;;10.00;99.90;;;;;;5069889;28;20102;-72
2023/01/05 08:20:37;;;;;;;0.10;0.10;;;10.00;99.90;;;;;;5068826;28;20045;-72
2023/01/05 08:23:02;;;;;;;0.70;0.70;;;10.00;99.90;;;;;;5074036;28;20048;-72
2023/01/05 08:25:28;;;;;;;0.10;0.10;;;10.00;99.90;;;;;;5070128;28;20135;-73
2023/01/05 08:27:54;;;;;;;0.10;0.10;;;10.00;99.90;;;;;;5069365;28;20041;-72
2023/01/05 08:30:19;;;;;;;0.55;0.55;;;10.00;99.90;;;;;;5055183;28;20097;-72
2023/01/05 08:32:45;;;;;;;0.55;0.55;;;10.00;99.90;;;;;;5080850;28;20048;-71
2023/01/05 08:35:11;;;;;;;0.47;0.47;;;10.00;99.90;;;;;;5108498;28;20040;-71
2023/01/05 08:37:38;;;;;;;0.10;0.10;;;10.00;99.90;;;;;;5076688;28;20036;-73
2023/01/05 08:40:04;;;;;;;0.20;0.20;;;10.00;99.90;;;;;;5090645;28;20032;-72
2023/01/05 08:42:30;;;;;;;0.70;0.52;;;10.00;99.90;;;;;;5049048;28;20081;-72
2023/01/05 08:44:56;;;;;;;0.17;0.17;;;10.00;99.90;;;;;;5068418;28;20460;-72
2023/01/05 08:47:21;;;;;;;0.38;0.38;;;10.00;99.90;;;;;;5070002;28;20044;-72
2023/01/05 08:49:48;;;;;;;3.80;1.75;;;10.00;99.90;;;;;;5074320;28;20123;-71
2023/01/05 08:52:14;;;;;;;0.10;0.10;;;10.00;99.90;;;;;;5057166;28;20180;-71
2023/01/05 08:54:39;;;;;;;0.20;0.20;;;10.00;99.90;;;;;;5068827;28;20480;-71
2023/01/05 08:57:08;;;;;;;2.78;2.58;;;10.00;99.90;;;;;;5072072;28;20144;-72
2023/01/05 08:59:34;;;;;;;0.10;0.10;;;10.00;99.90;;;;;;5074859;28;20059;-71
2023/01/05 09:01:59;;;;;;;0.32;0.32;;;10.00;99.90;;;;;;5091863;28;20050;-72
2023/01/05 09:04:26;;;;;;;0.15;0.15;;;10.00;99.90;;;;;;5080307;28;20040;-72
2023/01/05 09:06:52;;;;;;;11.80;0.45;;;10.10;99.90;;;;;;5072136;28;20044;-72
2023/01/05 09:09:18;;;;;;;0.00;0.00;;;10.10;99.90;;;;;;5051208;28;20094;-72
2023/01/05 09:11:43;;;;;;;0.00;0.00;;;10.10;99.90;;;;;;5050341;28;20052;-71
2023/01/05 09:14:15;;;;;;;0.10;0.10;;;10.10;99.90;;;;;;5077485;28;20122;-72
2023/01/05 09:16:40;;;;;;;0.10;0.10;;;10.10;99.90;;;;;;5050772;28;20062;-72
2023/01/05 09:19:06;;;;;;;0.43;0.17;;;10.10;99.90;;;;;;5070294;28;20524;-72
2023/01/05 09:21:32;;;;;;;1.30;1.20;;;10.10;99.90;;;;;;5086111;28;20036;-72
2023/01/05 09:23:57;;;;;;;0.20;0.20;;;10.10;99.90;;;;;;5067896;28;20051;-72
2023/01/05 09:26:23;;;;;;;0.40;0.40;;;10.10;99.90;;;;;;5050871;28;20538;-73
2023/01/05 09:28:49;;;;;;;4.28;0.98;;;10.10;99.90;;;;;;5092196;28;20043;-72
2023/01/05 09:31:18;;;;;;;1.08;1.08;;;10.10;99.90;;;;;;5070758;28;20067;-72
2023/01/05 09:33:44;;;;;;;13.90;1.27;;;10.10;99.90;;;;;;5074625;28;20074;-72
2023/01/05 09:36:14;;;;;;;0.10;0.10;;;10.20;99.90;;;;;;5068507;28;20036;-72
2023/01/05 09:38:40;;;;;;;0.90;0.90;;;10.20;99.90;;;;;;5067800;28;20507;-71
2023/01/05 09:41:21;;;;;;;0.22;0.22;;;10.30;99.90;;;;;;5050772;28;20052;-71
2023/01/05 09:43:51;;;;;;;0.70;0.68;;;10.30;99.90;;;;;;5070476;28;20044;-72
2023/01/05 09:46:23;;;;;;;0.10;0.10;;;10.30;99.90;;;;;;5068291;28;20079;-71
2023/01/05 09:48:56;;;;;;;0.10;0.10;;;10.30;99.90;;;;;;5088484;28;20078;-72
2023/01/05 09:51:22;;;;;;;0.10;0.10;;;10.30;99.90;;;;;;5087308;28;20040;-71
2023/01/05 09:53:48;;;;;;;0.10;0.10;;;10.30;99.90;;;;;;5087817;28;20145;-72
2023/01/05 09:56:36;;;;;;;1.33;0.95;;;10.30;99.90;;;;;;5087722;28;20040;-71
2023/01/05 09:59:12;;;;;;;0.10;0.10;;;10.30;99.90;;;;;;5064326;28;20170;-71
2023/01/05 10:01:39;;;;;;;3.05;1.00;;;10.40;99.90;;;;;;5077569;28;20562;-71
2023/01/05 10:04:13;;;;;;;0.43;0.43;;;10.30;99.90;;;;;;5080220;28;20041;-71
2023/01/05 10:06:43;;;;;;;1.08;1.00;;;10.40;99.90;;;;;;5084281;28;20094;-71
2023/01/05 10:09:15;;;;;;;0.00;0.00;;;10.40;99.90;;;;;;5083183;28;20036;-72
2023/01/05 10:14:50;;;;;;;0.95;0.95;;;10.40;99.90;;;;;;5079082;28;20438;-71
2023/01/05 10:17:19;;;;;;;2.95;1.30;;;10.50;99.90;;;;;;5088567;28;20055;-72
2023/01/05 10:19:46;;;;;;;0.15;0.15;;;10.60;99.90;;;;;;5053234;28;20126;-72
2023/01/05 10:22:45;;;;;;;0.10;0.10;;;10.60;99.90;;;;;;5075202;28;20140;-72
2023/01/05 10:25:22;;;;;;;5.00;1.55;;;10.60;99.90;;;;;;5069916;28;20044;-71
2023/01/05 10:28:25;;;;;;;0.10;0.10;;;10.60;99.90;;;;;;5070041;28;20048;-72
2023/01/05 10:30:58;;;;;;;23.55;4.57;;;10.60;99.90;;;;;;5077005;28;20168;-72
2023/01/05 10:33:38;;;;;;;0.00;0.00;;;10.60;99.90;;;;;;5074869;28;20469;-72
2023/01/05 10:36:30;;;;;;;0.10;0.10;;;10.60;99.90;;;;;;5088187;28;20337;-72
2023/01/05 10:39:11;;;;;;;0.10;0.10;;;10.60;99.90;;;;;;5068118;28;20043;-71
2023/01/05 10:42:02;;;;;;;0.20;0.20;;;10.60;99.90;;;;;;5074985;28;20439;-71
2023/01/05 10:44:34;;;;;;;0.52;0.52;;;10.60;99.90;;;;;;5067745;28;20446;-71
2023/01/05 10:47:00;;;;;;;0.00;0.00;;;10.60;99.90;;;;;;5067690;28;20126;-71
2023/01/05 10:49:30;;;;;;;0.60;0.40;;;10.50;99.90;;;;;;5066691;28;20039;-71
2023/01/05 10:51:58;;;;;;;0.00;0.00;;;10.60;99.90;;;;;;5067729;28;20570;-71
2023/01/05 10:54:50;;;;;;;0.10;0.10;;;10.60;99.90;;;;;;5070111;28;20041;-71
2023/01/05 10:57:27;;;;;;;1.55;1.20;;;10.70;99.90;;;;;;5072117;28;20071;-71
2023/01/05 11:00:00;;;;;;;2.72;1.45;;;10.70;99.90;;;;;;5100682;28;20108;-71
2023/01/05 11:02:30;;;;;;;0.93;0.70;;;10.80;99.90;;;;;;5111607;28;20506;-71
2023/01/05 11:05:15;;;;;;;0.00;0.00;;;10.80;99.90;;;;;;5082226;28;20083;-71
2023/01/05 11:07:54;;;;;;;0.00;0.00;;;10.80;99.90;;;;;;5106572;28;20113;-71
2023/01/05 11:10:22;;;;;;;0.10;0.10;;;10.80;99.90;;;;;;5070225;28;20040;-71
2023/01/05 11:12:59;;;;;;;0.10;0.10;;;10.90;99.90;;;;;;5071468;28;20134;-72
2023/01/05 11:15:24;;;;;;;0.17;0.17;;;10.90;99.90;;;;;;5070370;28;20105;-71
2023/01/05 11:17:50;;;;;;;0.10;0.10;;;10.90;99.90;;;;;;5071451;28;20134;-72
2023/01/05 11:20:17;;;;;;;1.88;0.82;;;10.90;99.90;;;;;;5087695;28;20040;-71
2023/01/05 11:22:47;;;;;;;0.47;0.47;;;10.90;99.90;;;;;;5087028;28;20783;-72
2023/01/05 11:25:19;;;;;;;0.10;0.10;;;10.90;99.90;;;;;;5079479;28;20036;-72
2023/01/05 11:27:44;;;;;;;0.55;0.55;;;10.90;99.90;;;;;;5070811;28;20051;-72
2023/01/05 11:30:19;;;;;;;1.00;1.00;;;10.90;99.90;;;;;;5072152;28;20059;-71
2023/01/05 11:32:46;;;;;;;0.10;0.10;;;10.90;99.90;;;;;;5070878;28;20048;-72
2023/01/05 11:35:37;;;;;;;0.10;0.10;;;11.00;99.90;;;;;;5071561;28;20105;-72
2023/01/05 11:38:04;;;;;;;0.00;0.00;;;11.00;99.90;;;;;;5050945;28;20059;-72
2023/01/05 11:40:32;;;;;;;5.40;0.85;;;11.00;99.90;;;;;;5053322;28;20044;-71
2023/01/05 11:42:59;;;;;;;0.10;0.10;;;11.00;99.90;;;;;;5071235;28;20048;-72
2023/01/05 11:45:45;;;;;;;1.55;1.30;;;11.00;99.90;;;;;;5075173;28;20194;-71
2023/01/05 11:48:18;;;;;;;0.10;0.10;;;11.00;99.90;;;;;;5071038;28;20464;-71
2023/01/05 11:50:50;;;;;;;0.40;0.40;;;11.10;99.90;;;;;;5070122;28;20048;-71
2023/01/05 11:53:39;;;;;;;0.22;0.22;;;11.10;99.90;;;;;;5070565;28;20809;-71
2023/01/05 11:56:20;;;;;;;0.20;0.20;;;11.10;99.90;;;;;;5059445;28;20060;-71
2023/01/05 11:58:51;;;;;;;0.43;0.43;;;11.10;99.90;;;;;;5079763;28;20047;-71
2023/01/05 12:01:28;;;;;;;0.45;0.45;;;11.10;99.90;;;;;;5111620;28;20743;-71
2023/01/05 12:04:02;;;;;;;0.80;0.80;;;11.20;99.90;;;;;;5076439;28;20084;-71
2023/01/05 12:06:54;;;;;;;0.30;0.30;;;11.20;99.90;;;;;;5070782;28;20645;-71
2023/01/05 12:09:40;;;;;;;0.10;0.10;;;11.30;99.90;;;;;;5071286;28;20091;-72
2023/01/05 12:12:18;;;;;;;0.75;0.75;;;11.30;99.90;;;;;;5066470;28;20097;-71
2023/01/05 12:14:44;;;;;;;2.15;2.05;;;11.20;99.90;;;;;;5069968;28;20046;-71
2023/01/05 12:17:15;;;;;;;0.10;0.10;;;11.20;99.90;;;;;;5070831;28;20120;-71
2023/01/05 12:20:14;;;;;;;6.45;1.67;;;11.10;99.90;;;;;;5066838;28;20057;-71
2023/01/05 12:22:43;;;;;;;0.20;0.20;;;11.10;99.90;;;;;;5034756;28;20564;-71
2023/01/05 12:25:36;;;;;;;0.10;0.10;;;11.10;99.90;;;;;;5070329;28;20126;-71
2023/01/05 12:28:30;;;;;;;0.10;0.10;;;11.10;99.90;;;;;;5070009;28;20396;-71
2023/01/05 12:31:17;;;;;;;0.00;0.00;;;11.00;99.90;;;;;;5068984;28;20036;-71
2023/01/05 12:33:46;;;;;;;0.10;0.10;;;11.10;99.90;;;;;;5068946;28;20045;-72
2023/01/05 12:36:20;;;;;;;0.70;0.70;;;11.00;99.90;;;;;;5069078;28;20044;-71
2023/01/05 12:39:12;;;;;;;0.10;0.10;;;11.10;99.90;;;;;;5068661;28;20051;-71
2023/01/05 12:41:43;;;;;;;0.63;0.43;;;11.00;99.90;;;;;;5063745;28;20071;-71
2023/01/05 12:44:22;;;;;;;1.17;1.17;;;11.00;99.90;;;;;;5075045;28;20043;-71
2023/01/05 12:47:09;;;;;;;0.20;0.20;;;11.00;99.90;;;;;;5069665;28;20051;-71
2023/01/05 12:50:07;;;;;;;0.10;0.10;;;11.00;99.90;;;;;;5069513;28;20036;-71
2023/01/05 12:52:38;;;;;;;0.10;0.10;;;10.90;99.90;;;;;;5035994;28;20063;-71
2023/01/05 12:55:23;;;;;;;0.08;0.08;;;11.00;99.90;;;;;;5068892;28;20047;-71
2023/01/05 12:57:56;;;;;;;0.30;0.30;;;11.00;99.90;;;;;;5069475;28;20055;-71
2023/01/05 13:00:24;;;;;;;0.10;0.10;;;11.00;99.90;;;;;;5084963;28;20089;-71
2023/01/05 13:03:10;;;;;;;0.10;0.10;;;11.00;99.90;;;;;;5082572;28;20488;-71
2023/01/05 13:06:03;;;;;;;0.10;0.10;;;11.00;99.90;;;;;;5073979;28;20032;-71
2023/01/05 13:09:03;;;;;;;0.10;0.10;;;11.00;99.90;;;;;;5074985;28;20551;-72
2023/01/05 13:11:47;;;;;;;0.00;0.00;;;11.00;99.90;;;;;;5067773;28;20057;-72
2023/01/05 13:14:18;;;;;;;1.10;0.55;;;10.90;99.90;;;;;;5051788;28;20373;-71
2023/01/05 13:16:59;;;;;;;0.05;0.05;;;10.90;99.90;;;;;;5052719;28;20052;-71
2023/01/05 13:19:33;;;;;;;0.30;0.30;;;10.90;99.90;;;;;;5068086;28;20082;-72
2023/01/05 13:22:02;;;;;;;;;;;11.00;99.90;;;;;;5085632;28;20051;-72
2023/01/05 13:24:37;;;;;;;0.65;0.52;;;11.00;99.90;;;;;;5068837;28;19924;-72
2023/01/05 13:27:03;;;;;;;0.10;0.10;;;11.00;99.90;;;;;;5067990;28;20567;-72
2023/01/05 13:29:34;;;;;;;7.03;0.75;;;11.00;99.90;;;;;;5086398;28;20040;-70
2023/01/05 13:32:08;;;;;;;0.22;0.22;;;10.90;99.90;;;;;;5098775;28;20135;-71
2023/01/05 13:34:37;;;;;;;0.10;0.10;;;11.00;99.90;;;;;;5068289;28;20041;-71
2023/01/05 13:37:21;;;;;;;0.10;0.10;;;11.00;99.90;;;;;;5068190;28;20173;-70
2023/01/05 13:40:09;;;;;;;0.10;0.10;;;11.00;99.90;;;;;;5068879;28;20085;-70